createdAt,value
2022-08-31T00:00:14.498Z,102163.91
2022-08-31T00:03:05.514Z,102160.75
2022-08-31T00:05:40.114Z,102155.97
2022-08-31T00:08:17.809Z,102157.19
2022-08-31T00:10:51.509Z,102155.97
2022-08-31T00:13:24.968Z,102161.56
2022-08-31T00:15:58.029Z,102156.78
2022-08-31T00:18:30.721Z,102163.91
2022-08-31T00:21:05.861Z,102160.78
2022-08-31T00:23:38.634Z,102166.34
2022-08-31T00:26:11.365Z,102162.38
2022-08-31T00:28:45.022Z,102158.41
2022-08-31T00:31:20.408Z,102160.78
2022-08-31T00:33:53.335Z,102157.22
2022-08-31T00:36:28.147Z,102157.59
2022-08-31T00:39:01.368Z,102153.63
2022-08-31T00:41:37.417Z,102155.25
2022-08-31T00:44:12.556Z,102157.63
2022-08-31T00:46:45.750Z,102156.47
2022-08-31T00:49:21.875Z,102158.41
2022-08-31T00:52:00.195Z,102153.66
2022-08-31T00:54:35.742Z,102148.91
2022-08-31T00:57:09.898Z,102154.06
2022-08-31T00:59:45.546Z,102152.88
2022-08-31T01:02:19.285Z,102150.91
2022-08-31T01:04:53.166Z,102155.69
2022-08-31T01:07:27.903Z,102149.72
2022-08-31T01:10:01.504Z,102150.50
2022-08-31T01:12:34.343Z,102153.28
2022-08-31T01:15:08.251Z,102152.13
2022-08-31T01:17:42.031Z,102148.94
2022-08-31T01:20:21.272Z,102148.16
2022-08-31T01:23:07.299Z,102152.94
2022-08-31T01:25:43.878Z,102143.78
2022-08-31T01:28:17.046Z,102148.94
2022-08-31T01:31:01.526Z,102149.75
2022-08-31T01:33:36.727Z,102152.13
2022-08-31T01:36:14.197Z,102148.16
2022-08-31T01:38:53.100Z,102153.72
2022-08-31T01:41:27.297Z,102157.69
2022-08-31T01:44:00.065Z,102152.94
2022-08-31T01:46:34.784Z,102153.72
2022-08-31T01:49:07.768Z,102149.72
2022-08-31T01:51:40.825Z,102148.97
2022-08-31T01:54:14.949Z,102152.16
2022-08-31T01:56:49.684Z,102151.72
2022-08-31T01:59:30.408Z,102154.91
2022-08-31T02:02:10.663Z,102148.56
2022-08-31T02:04:43.320Z,102157.72
2022-08-31T02:07:16.124Z,102154.50
2022-08-31T02:09:50.213Z,102156.88
2022-08-31T02:12:23.753Z,102166.41
2022-08-31T02:14:56.545Z,102152.88
2022-08-31T02:17:29.321Z,102156.91
2022-08-31T02:20:02.085Z,102148.13
2022-08-31T02:22:35.071Z,102156.91
2022-08-31T02:25:11.356Z,102148.13
2022-08-31T02:27:44.549Z,102157.69
2022-08-31T02:30:19.012Z,102148.94
2022-08-31T02:32:51.843Z,102154.91
2022-08-31T02:35:24.940Z,102152.91
2022-08-31T02:37:59.053Z,102149.31
2022-08-31T02:40:35.390Z,102144.94
2022-08-31T02:43:09.904Z,102152.88
2022-08-31T02:45:51.094Z,102156.06
2022-08-31T02:48:31.848Z,102159.22
2022-08-31T02:51:08.648Z,102158.03
2022-08-31T02:53:41.446Z,102157.63
2022-08-31T02:56:16.261Z,102156.06
2022-08-31T02:58:54.717Z,102155.25
2022-08-31T03:01:29.212Z,102157.63
2022-08-31T03:04:03.061Z,102162.41
2022-08-31T03:06:35.687Z,102163.19
2022-08-31T03:09:08.939Z,102165.56
2022-08-31T03:11:43.108Z,102165.56
2022-08-31T03:14:16.007Z,102165.94
2022-08-31T03:16:51.726Z,102163.16
2022-08-31T03:19:25.794Z,102165.94
2022-08-31T03:21:58.519Z,102156.81
2022-08-31T03:24:31.339Z,102159.19
2022-08-31T03:27:06.141Z,102169.50
2022-08-31T03:29:38.855Z,102162.38
2022-08-31T03:32:23.930Z,102167.09
2022-08-31T03:35:01.567Z,102166.72
2022-08-31T03:37:34.945Z,102173.06
2022-08-31T03:40:10.109Z,102168.69
2022-08-31T03:42:46.160Z,102170.28
2022-08-31T03:45:20.892Z,102168.69
2022-08-31T03:47:53.619Z,102175.03
2022-08-31T03:50:28.047Z,102175.03
2022-08-31T03:53:13.362Z,102175.03
2022-08-31T03:55:46.445Z,102172.63
2022-08-31T03:58:20.590Z,102176.97
2022-08-31T04:00:54.438Z,102180.56
2022-08-31T04:03:47.217Z,102177.38
2022-08-31T04:06:42.520Z,102182.56
2022-08-31T04:09:53.823Z,102182.06
2022-08-31T04:13:01.781Z,102176.09
2022-08-31T04:16:00.421Z,102177.31
2022-08-31T04:18:51.976Z,102174.97
2022-08-31T04:21:27.107Z,102184.50
2022-08-31T04:24:01.709Z,102184.44
2022-08-31T04:26:37.716Z,102185.56
2022-08-31T04:29:13.652Z,102184.81
2022-08-31T04:31:48.820Z,102182.78
2022-08-31T04:34:21.572Z,102186.75
2022-08-31T04:36:54.494Z,102185.56
2022-08-31T04:39:31.684Z,102182.44
2022-08-31T04:42:06.157Z,102181.63
2022-08-31T04:44:40.334Z,102184.34
2022-08-31T04:47:14.801Z,102184.34
2022-08-31T04:49:47.936Z,102183.16
2022-08-31T04:52:23.891Z,102186.69
2022-08-31T04:55:01.248Z,102193.47
2022-08-31T04:57:35.652Z,102190.31
2022-08-31T05:00:11.007Z,102189.50
2022-08-31T05:03:05.218Z,102191.47
2022-08-31T05:05:39.652Z,102196.66
2022-08-31T05:08:12.587Z,102194.63
2022-08-31T05:10:45.301Z,102188.28
2022-08-31T05:13:19.416Z,102189.09
2022-08-31T05:15:55.236Z,102197.81
2022-08-31T05:18:29.318Z,102202.16
2022-08-31T05:21:10.269Z,102205.38
2022-08-31T05:23:44.299Z,102205.72
2022-08-31T05:26:21.607Z,102211.28
2022-08-31T05:28:58.045Z,102199.34
2022-08-31T05:31:31.535Z,102204.94
2022-08-31T05:34:08.225Z,102202.94
2022-08-31T05:36:45.397Z,102201.78
2022-08-31T05:39:18.701Z,102207.31
2022-08-31T05:41:54.170Z,102209.66
2022-08-31T05:44:29.437Z,102206.44
2022-08-31T05:47:07.034Z,102207.63
2022-08-31T05:49:43.884Z,102208.84
2022-08-31T05:52:25.107Z,102209.69
2022-08-31T05:54:59.983Z,102210.09
2022-08-31T05:57:32.782Z,102208.16
2022-08-31T06:00:06.604Z,102208.50
2022-08-31T06:02:45.549Z,102215.22
2022-08-31T06:05:21.430Z,102211.28
2022-08-31T06:07:55.247Z,102217.59
2022-08-31T06:10:28.271Z,102216.84
2022-08-31T06:13:04.288Z,102215.25
2022-08-31T06:15:42.047Z,102218.78
2022-08-31T06:18:16.910Z,102227.16
2022-08-31T06:20:51.003Z,102221.59
2022-08-31T06:23:25.128Z,102220.84
2022-08-31T06:26:05.857Z,102221.59
2022-08-31T06:28:38.883Z,102222.78
2022-08-31T06:31:16.596Z,102219.22
2022-08-31T06:33:49.628Z,102223.16
2022-08-31T06:36:35.449Z,102230.34
2022-08-31T06:39:35.298Z,102222.03
2022-08-31T06:42:17.246Z,102227.56
2022-08-31T06:45:09.711Z,102226.34
2022-08-31T06:47:47.260Z,102224.06
2022-08-31T06:50:20.765Z,102222.44
2022-08-31T06:52:57.273Z,102227.63
2022-08-31T06:56:06.392Z,102224.38
2022-08-31T06:59:15.843Z,102234.41
2022-08-31T07:02:21.576Z,102235.19
2022-08-31T07:04:54.261Z,102242.34
2022-08-31T07:07:27.044Z,102233.59
2022-08-31T07:10:01.265Z,102249.31
2022-08-31T07:12:34.537Z,102244.50
2022-08-31T07:15:07.922Z,102238.16
2022-08-31T07:17:40.747Z,102244.69
2022-08-31T07:20:15.121Z,102244.72
2022-08-31T07:22:48.886Z,102248.25
2022-08-31T07:25:49.176Z,102247.06
2022-08-31T07:28:22.089Z,102246.41
2022-08-31T07:30:56.376Z,102246.44
2022-08-31T07:33:38.944Z,102247.69
2022-08-31T07:36:13.397Z,102247.34
2022-08-31T07:39:22.569Z,102245.41
2022-08-31T07:42:10.358Z,102241.06
2022-08-31T07:44:43.235Z,102245.06
2022-08-31T07:47:28.359Z,102249.06
2022-08-31T07:50:02.269Z,102242.31
2022-08-31T07:52:47.234Z,102244.69
2022-08-31T07:55:48.948Z,102245.50
2022-08-31T07:58:40.216Z,102250.66
2022-08-31T08:01:14.387Z,102265.78
2022-08-31T08:03:47.458Z,102259.41
2022-08-31T08:06:49.574Z,102270.94
2022-08-31T08:09:48.224Z,102261.00
2022-08-31T08:12:27.865Z,102267.34
2022-08-31T08:15:14.989Z,102263.38
2022-08-31T08:18:13.283Z,102275.69
2022-08-31T08:20:53.586Z,102265.78
2022-08-31T08:23:29.045Z,102272.91
2022-08-31T08:26:22.020Z,102285.63
2022-08-31T08:29:20.961Z,102276.91
2022-08-31T08:31:56.520Z,102274.09
2022-08-31T08:34:32.427Z,102284.03
2022-08-31T08:37:07.632Z,102268.91
2022-08-31T08:39:42.315Z,102266.53
2022-08-31T08:42:24.012Z,102281.66
2022-08-31T08:44:57.764Z,102278.47
2022-08-31T08:47:37.952Z,102282.44
2022-08-31T08:50:13.249Z,102275.22
2022-08-31T08:52:47.492Z,102278.41
2022-08-31T08:55:23.588Z,102275.53
2022-08-31T08:57:58.632Z,102272.41
2022-08-31T09:00:31.367Z,102297.91
2022-08-31T09:03:18.324Z,102285.88
2022-08-31T09:06:07.307Z,102290.28
2022-08-31T09:09:00.698Z,102284.69
2022-08-31T09:11:46.608Z,102283.81
2022-08-31T09:14:38.200Z,102275.78
2022-08-31T09:17:25.680Z,102284.56
2022-08-31T09:20:01.629Z,102291.94
2022-08-31T09:22:51.599Z,102286.00
2022-08-31T09:25:33.348Z,102294.50
2022-08-31T09:28:14.044Z,102281.91
2022-08-31T09:30:52.735Z,102285.72
2022-08-31T09:33:28.214Z,102283.28
2022-08-31T09:36:17.635Z,102274.94
2022-08-31T09:38:51.102Z,102279.25
2022-08-31T09:41:35.462Z,102283.50
2022-08-31T09:44:24.545Z,102273.50
2022-08-31T09:47:02.141Z,102267.47
2022-08-31T09:49:38.701Z,102275.91
2022-08-31T09:52:20.896Z,102270.66
2022-08-31T09:55:13.645Z,102274.84
2022-08-31T09:57:54.102Z,102271.38
2022-08-31T10:00:35.217Z,102271.91
2022-08-31T10:03:18.914Z,102268.97
2022-08-31T10:05:54.648Z,102264.13
2022-08-31T10:08:40.955Z,102265.75
2022-08-31T10:11:19.690Z,102263.53
2022-08-31T10:14:02.662Z,102262.34
2022-08-31T10:16:38.796Z,102251.28
2022-08-31T10:19:18.340Z,102259.91
2022-08-31T10:21:55.108Z,102257.28
2022-08-31T10:24:38.182Z,102256.47
2022-08-31T10:27:16.913Z,102254.63
2022-08-31T10:29:56.126Z,102248.41
2022-08-31T10:32:37.157Z,102243.78
2022-08-31T10:35:19.524Z,102240.28
2022-08-31T10:37:59.565Z,102239.25
2022-08-31T10:40:41.519Z,102237.50
2022-08-31T10:43:19.115Z,102235.72
2022-08-31T10:45:54.319Z,102243.19
2022-08-31T10:48:28.226Z,102233.31
2022-08-31T10:51:14.207Z,102238.72
2022-08-31T10:53:59.774Z,102245.41
2022-08-31T10:56:41.607Z,102245.56
2022-08-31T10:59:25.833Z,102244.56
2022-08-31T11:02:08.042Z,102235.69
2022-08-31T11:04:53.244Z,102234.00
2022-08-31T11:07:37.802Z,102233.41
2022-08-31T11:10:27.077Z,102234.91
2022-08-31T11:13:06.645Z,102236.16
2022-08-31T11:16:00.196Z,102240.41
2022-08-31T11:18:55.683Z,102238.78
2022-08-31T11:22:07.874Z,102240.69
2022-08-31T11:25:00.380Z,102249.38
2022-08-31T11:27:38.349Z,102236.97
2022-08-31T11:30:24.094Z,102223.63
2022-08-31T11:33:00.166Z,102228.72
2022-08-31T11:36:08.834Z,102224.25
2022-08-31T11:38:52.246Z,102217.53
2022-08-31T11:41:39.080Z,102222.97
2022-08-31T11:44:52.191Z,102217.25
2022-08-31T11:47:43.373Z,102210.00
2022-08-31T11:50:56.119Z,102209.00
2022-08-31T11:53:37.672Z,102209.44
2022-08-31T11:56:14.454Z,102207.56
2022-08-31T11:58:48.126Z,102210.06
2022-08-31T12:01:36.629Z,102202.88
2022-08-31T12:04:51.897Z,102198.53
2022-08-31T12:07:29.497Z,102194.44
2022-08-31T12:10:39.665Z,102186.13
2022-08-31T12:13:23.081Z,102197.00
2022-08-31T12:16:19.382Z,102187.81
2022-08-31T12:19:02.083Z,102197.28
2022-08-31T12:22:06.849Z,102180.47
2022-08-31T12:25:04.682Z,102193.47
2022-08-31T12:27:47.859Z,102186.09
2022-08-31T12:30:24.267Z,102183.94
2022-08-31T12:33:02.692Z,102169.97
2022-08-31T12:35:35.580Z,102179.63
2022-08-31T12:38:17.958Z,102170.03
2022-08-31T12:40:54.683Z,102168.00
2022-08-31T12:43:32.756Z,102170.03
2022-08-31T12:46:24.918Z,102176.16
2022-08-31T12:49:22.714Z,102171.09
2022-08-31T12:52:07.340Z,102163.22
2022-08-31T12:55:12.653Z,102162.44
2022-08-31T12:57:54.802Z,102156.66
2022-08-31T13:00:30.708Z,102153.50
2022-08-31T13:03:16.465Z,102148.88
2022-08-31T13:06:08.314Z,102164.00
2022-08-31T13:08:43.675Z,102156.75
2022-08-31T13:11:25.481Z,102149.66
2022-08-31T13:14:13.492Z,102148.03
2022-08-31T13:16:49.874Z,102146.75
2022-08-31T13:19:25.695Z,102145.19
2022-08-31T13:22:00.471Z,102139.78
2022-08-31T13:24:36.184Z,102146.13
2022-08-31T13:27:20.224Z,102137.75
2022-08-31T13:29:55.977Z,102137.31
2022-08-31T13:32:32.867Z,102133.06
2022-08-31T13:35:12.155Z,102138.25
2022-08-31T13:37:52.449Z,102135.41
2022-08-31T13:40:26.507Z,102129.19
2022-08-31T13:43:02.201Z,102129.00
2022-08-31T13:45:40.394Z,102134.16
2022-08-31T13:48:16.095Z,102134.63
2022-08-31T13:50:53.246Z,102128.72
2022-08-31T13:53:39.713Z,102129.59
2022-08-31T13:56:38.585Z,102115.28
2022-08-31T13:59:24.990Z,102125.06
2022-08-31T14:01:59.482Z,102124.63
2022-08-31T14:05:00.436Z,102120.06
2022-08-31T14:07:54.302Z,102133.66
2022-08-31T14:10:29.435Z,102122.31
2022-08-31T14:13:10.150Z,102115.56
2022-08-31T14:15:56.484Z,102124.00
2022-08-31T14:18:33.774Z,102128.97
2022-08-31T14:21:22.608Z,102118.41
2022-08-31T14:24:01.008Z,102120.41
2022-08-31T14:26:36.819Z,102112.59
2022-08-31T14:29:12.567Z,102112.59
2022-08-31T14:31:49.387Z,102108.09
2022-08-31T14:34:28.028Z,102113.19
2022-08-31T14:37:06.249Z,102117.38
2022-08-31T14:39:41.793Z,102105.94
2022-08-31T14:42:18.888Z,102103.09
2022-08-31T14:44:56.708Z,102104.47
2022-08-31T14:47:32.882Z,102096.88
2022-08-31T14:50:06.644Z,102100.09
2022-08-31T14:52:41.896Z,102100.47
2022-08-31T14:55:15.243Z,102097.75
2022-08-31T14:57:58.194Z,102101.66
2022-08-31T15:00:33.191Z,102092.94
2022-08-31T15:03:08.220Z,102097.94
2022-08-31T15:05:41.490Z,102091.88
2022-08-31T15:08:22.936Z,102098.31
2022-08-31T15:11:12.540Z,102095.19
2022-08-31T15:13:45.744Z,102102.81
2022-08-31T15:16:18.558Z,102101.06
2022-08-31T15:18:54.367Z,102099.03
2022-08-31T15:21:29.286Z,102094.47
2022-08-31T15:24:02.025Z,102093.44
2022-08-31T15:26:34.840Z,102090.94
2022-08-31T15:29:07.810Z,102091.09
2022-08-31T15:31:51.152Z,102085.97
2022-08-31T15:34:27.117Z,102095.16
2022-08-31T15:37:02.523Z,102083.59
2022-08-31T15:39:40.586Z,102083.22
2022-08-31T15:42:13.720Z,102082.22
2022-08-31T15:44:57.069Z,102092.06
2022-08-31T15:47:50.495Z,102075.84
2022-08-31T15:50:32.234Z,102084.19
2022-08-31T15:53:09.894Z,102081.72
2022-08-31T15:55:44.734Z,102074.25
2022-08-31T15:58:24.452Z,102071.53
2022-08-31T16:00:59.566Z,102069.41
2022-08-31T16:03:35.491Z,102066.25
2022-08-31T16:06:11.196Z,102066.50
2022-08-31T16:08:43.900Z,102067.47
2022-08-31T16:11:17.010Z,102064.06
2022-08-31T16:13:56.283Z,102069.28
2022-08-31T16:16:31.878Z,102070.84
2022-08-31T16:19:06.981Z,102062.41
2022-08-31T16:21:45.516Z,102061.34
2022-08-31T16:24:22.384Z,102059.00
2022-08-31T16:26:57.574Z,102064.06
2022-08-31T16:29:30.968Z,102055.88
2022-08-31T16:32:04.427Z,102054.31
2022-08-31T16:34:39.003Z,102048.19
2022-08-31T16:37:13.117Z,102050.84
2022-08-31T16:39:47.708Z,102048.03
2022-08-31T16:42:20.454Z,102048.47
2022-08-31T16:44:53.050Z,102055.34
2022-08-31T16:47:25.780Z,102052.19
2022-08-31T16:49:58.929Z,102048.88
2022-08-31T16:52:32.798Z,102045.09
2022-08-31T16:55:06.776Z,102051.03
2022-08-31T16:57:39.464Z,102054.28
2022-08-31T17:00:13.285Z,102052.25
2022-08-31T17:02:46.599Z,102048.72
2022-08-31T17:05:19.676Z,102060.09
2022-08-31T17:07:53.704Z,102053.66
2022-08-31T17:10:26.385Z,102058.09
2022-08-31T17:12:58.924Z,102062.66
2022-08-31T17:15:32.651Z,102053.31
2022-08-31T17:18:05.464Z,102052.78
2022-08-31T17:20:40.846Z,102047.16
2022-08-31T17:23:16.042Z,102058.22
2022-08-31T17:25:48.707Z,102046.69
2022-08-31T17:28:25.881Z,102048.09
2022-08-31T17:31:00.266Z,102049.38
2022-08-31T17:33:33.191Z,102056.84
2022-08-31T17:36:08.398Z,102056.75
2022-08-31T17:38:42.424Z,102066.06
2022-08-31T17:41:15.492Z,102070.38
2022-08-31T17:43:48.229Z,102065.66
2022-08-31T17:46:21.173Z,102059.59
2022-08-31T17:48:55.763Z,102058.28
2022-08-31T17:51:31.007Z,102062.16
2022-08-31T17:54:10.756Z,102063.41
2022-08-31T17:56:47.895Z,102065.19
2022-08-31T17:59:22.644Z,102058.53
2022-08-31T18:01:57.206Z,102065.38
2022-08-31T18:04:31.541Z,102058.66
2022-08-31T18:07:04.706Z,102067.31
2022-08-31T18:09:40.700Z,102063.25
2022-08-31T18:12:14.406Z,102072.38
2022-08-31T18:14:47.085Z,102073.00
2022-08-31T18:17:23.614Z,102080.28
2022-08-31T18:19:56.288Z,102074.66
2022-08-31T18:22:29.073Z,102073.28
2022-08-31T18:25:03.163Z,102076.53
2022-08-31T18:27:35.878Z,102087.06
2022-08-31T18:30:13.708Z,102081.06
2022-08-31T18:32:49.156Z,102091.00
2022-08-31T18:35:21.958Z,102091.84
2022-08-31T18:37:54.505Z,102088.69
2022-08-31T18:41:00.526Z,102089.88
2022-08-31T18:43:51.740Z,102087.94
2022-08-31T18:46:24.896Z,102098.38
2022-08-31T18:49:11.436Z,102096.97
2022-08-31T18:51:46.345Z,102088.91
2022-08-31T18:54:19.262Z,102097.78
2022-08-31T18:56:53.346Z,102099.97
2022-08-31T18:59:26.862Z,102098.84
2022-08-31T19:02:00.058Z,102102.94
2022-08-31T19:04:33.250Z,102103.13
2022-08-31T19:07:07.086Z,102103.41
2022-08-31T19:09:40.337Z,102106.56
2022-08-31T19:12:19.369Z,102113.13
2022-08-31T19:14:52.971Z,102109.59
2022-08-31T19:17:25.765Z,102110.94
2022-08-31T19:19:59.007Z,102105.47
2022-08-31T19:22:31.891Z,102109.56
2022-08-31T19:25:08.015Z,102112.91
2022-08-31T19:27:51.069Z,102112.16
2022-08-31T19:30:28.027Z,102117.84
2022-08-31T19:33:07.425Z,102116.53
2022-08-31T19:35:40.813Z,102117.03
2022-08-31T19:38:14.330Z,102121.69
2022-08-31T19:40:47.300Z,102124.25
2022-08-31T19:46:17.290Z,102126.03
2022-08-31T19:48:50.632Z,102119.41
2022-08-31T19:51:24.384Z,102127.00
2022-08-31T19:54:01.451Z,102127.50
2022-08-31T19:56:34.964Z,102124.78
2022-08-31T19:59:12.176Z,102133.09
2022-08-31T20:01:48.905Z,102132.88
2022-08-31T20:04:31.033Z,102135.91
2022-08-31T20:07:10.346Z,102137.47
2022-08-31T20:09:43.599Z,102133.28
2022-08-31T20:12:17.969Z,102143.78
2022-08-31T20:14:52.267Z,102142.28
2022-08-31T20:17:25.360Z,102145.94
2022-08-31T20:19:59.925Z,102144.81
2022-08-31T20:22:33.779Z,102141.34
2022-08-31T20:25:09.045Z,102137.81
2022-08-31T20:27:41.843Z,102144.34
2022-08-31T20:30:16.474Z,102146.75
2022-08-31T20:32:49.435Z,102142.38
2022-08-31T20:35:22.696Z,102135.00
2022-08-31T20:37:56.301Z,102133.09
2022-08-31T20:40:29.589Z,102132.28
2022-08-31T20:43:07.136Z,102125.56
2022-08-31T20:45:42.349Z,102129.59
2022-08-31T20:48:33.590Z,102132.84
2022-08-31T20:51:16.238Z,102137.84
2022-08-31T20:53:49.817Z,102124.22
2022-08-31T20:56:26.145Z,102127.44
2022-08-31T20:58:59.133Z,102135.88
2022-08-31T21:01:33.399Z,102134.66
2022-08-31T21:04:08.158Z,102128.47
2022-08-31T21:06:41.513Z,102131.69
2022-08-31T21:09:14.922Z,102129.81
2022-08-31T21:11:48.279Z,102126.16
2022-08-31T21:14:21.713Z,102128.53
2022-08-31T21:16:57.000Z,102128.59
2022-08-31T21:19:29.972Z,102129.16
2022-08-31T21:22:07.084Z,102123.66
2022-08-31T21:24:43.350Z,102135.69
2022-08-31T21:27:18.167Z,102136.03
2022-08-31T21:29:51.436Z,102129.72
2022-08-31T21:32:25.853Z,102128.69
2022-08-31T21:34:58.622Z,102137.78
2022-08-31T21:37:31.393Z,102129.91
2022-08-31T21:40:05.357Z,102139.94
2022-08-31T21:42:38.272Z,102141.88
2022-08-31T21:45:11.833Z,102145.09
2022-08-31T21:47:45.989Z,102144.44
2022-08-31T21:50:19.686Z,102139.25
2022-08-31T21:52:53.792Z,102138.88
2022-08-31T21:55:28.082Z,102139.69
2022-08-31T21:58:01.492Z,102139.38
2022-08-31T22:00:34.979Z,102135.78
2022-08-31T22:03:09.834Z,102135.47
2022-08-31T22:05:43.547Z,102138.28
2022-08-31T22:08:16.455Z,102145.03
2022-08-31T22:10:50.157Z,102141.91
2022-08-31T22:13:22.894Z,102148.78
2022-08-31T22:15:57.461Z,102152.41
2022-08-31T22:19:00.114Z,102147.16
2022-08-31T22:21:30.979Z,102152.38
2022-08-31T22:24:07.441Z,102156.81
2022-08-31T22:26:43.261Z,102160.75
2022-08-31T22:29:21.801Z,102158.81
2022-08-31T22:31:57.541Z,102152.47
2022-08-31T22:34:32.173Z,102162.50
2022-08-31T22:37:05.752Z,102168.06
2022-08-31T22:39:38.531Z,102167.34
2022-08-31T22:42:12.041Z,102162.56
2022-08-31T22:44:44.863Z,102172.00
2022-08-31T22:47:17.605Z,102166.91
2022-08-31T22:49:51.666Z,102159.41
2022-08-31T22:52:24.397Z,102165.66
2022-08-31T22:54:57.309Z,102163.34
2022-08-31T22:57:30.186Z,102158.28
2022-08-31T23:00:02.895Z,102161.78
2022-08-31T23:02:41.962Z,102159.00
2022-08-31T23:05:18.300Z,102153.03
2022-08-31T23:07:51.852Z,102153.88
2022-08-31T23:10:24.683Z,102146.75
2022-08-31T23:12:58.151Z,102146.00
2022-08-31T23:15:31.274Z,102142.03
2022-08-31T23:18:04.774Z,102136.47
2022-08-31T23:20:41.851Z,102134.84
2022-08-31T23:23:15.094Z,102128.91
2022-08-31T23:25:47.988Z,102127.69
2022-08-31T23:28:21.027Z,102125.00
2022-08-31T23:30:53.985Z,102129.41
2022-08-31T23:33:26.926Z,102123.06
2022-08-31T23:36:01.198Z,102119.00
2022-08-31T23:38:35.783Z,102119.06
2022-08-31T23:41:13.769Z,102121.03
2022-08-31T23:43:46.886Z,102121.47
2022-08-31T23:46:19.714Z,102121.47
2022-08-31T23:48:54.221Z,102129.38
2022-08-31T23:51:28.969Z,102121.84
2022-08-31T23:54:06.336Z,102123.09
2022-08-31T23:56:41.708Z,102109.59
2022-08-31T23:59:18.773Z,102115.94
